Aviation Digital Data Service (ADDS)

Output produced by METARs form (2054 UTC 29 May 2017)
found at http://www.aviationweather.gov/adds/metars/
 
UTDD 292030Z VRB02MPS 9999 FEW066CB 24/09 Q1012 R09/D TEMPO TS RMK QFE691/0921
TAF UTDD 291800Z 2919/3007 VRB02MPS 6000 SCT060CB BKN100 
     TEMPO 2919/3007 VRB08G13MPS 2100 TS HZ
       
UTAA 292000Z 26008KT 9999 BKN090 27/10 Q1018 NOSIG
TAF UTAA 291630Z 2918/3018 30018KT 5000 SCT050CB 530009 
     TEMPO 2923/3002 30016G26KT 3000 BLDU 
     PROB30 
     TEMPO 3000/3004 VRB26KT -TSRA 
     BECMG 3005/3007 04016KT
       
UTAK 292000Z 02008KT CAVOK 18/12 Q1020 NOSIG
TAF UTAK 291630Z 2918/3018 35018KT 6000 SCT020 530007 
     TEMPO 2919/2922 07012KT 3000 BR BKN006 
     TEMPO 2922/3003 1500 BR BKN004 
     BECMG 3003/3005 13016KT 9999 SCT023 
     TEMPO 3005/3010 22016KT
       
UTAM 292000Z 33004KT 6000 SCT100 SCT230 26/12 Q1016 NOSIG
TAF UTAM 291630Z 2918/3018 35016KT 6000 SCT050 530009 
     TEMPO 2918/2924 32014KT 3000 DRDU 
     TEMPO 2904/2912 04012G22KT
       
UTAT 292000Z 34014G24KT CAVOK 20/05 Q1018 NOSIG
TAF UTAT 291641Z 2918/3018 30016G26KT 6000 SCT050CB BKN100 530005 
     TEMPO 2918/2924 36024G34KT 1000 DS VV007
       
UTAV 292000Z 01006KT 7000 FEW100 24/08 Q1016 NOSIG
TAF UTAV 291630Z 2918/3018 36014KT 5000 SCT050 530005 
     TEMPO 2918/2924 28016G26KT 3000 DRDU SCT050CB 
     TEMPO 3006/3012 04014G24KT
       
UTDD 292030Z VRB02MPS 9999 FEW066CB 24/09 Q1012 R09/D TEMPO TS RMK QFE691/0921
TAF UTDD 291800Z 2919/3007 VRB02MPS 6000 SCT060CB BKN100 
     TEMPO 2919/3007 VRB08G13MPS 2100 TS HZ
       
UTDK 292030Z 08005MPS 9999 BKN130 26/08 Q1011 R01/09//70 RMK QFE701/0935
TAF UTDK 291800Z 2919/3004 03005MPS 6000 SCT066CB BKN100 
     TEMPO 2919/3004 VRB08G13MPS 3000 TS HZ
       
UTDL 292030Z 21008MPS 9999 -SHRA VCTS SCT056CB OVC100 21/13 Q1014 8829//50 NOSIG RMK QFE723/0964
TAF UTDL 291800Z 2919/3004 23008MPS 9999 FEW060CB SCT100 
     TEMPO 2919/3004 23007G12MPS 6000 SCT050CB
       
UTDT 292030Z 20002MPS 170V240 9999 VCTS FEW066CB SCT160 23/11 Q1009 35CLRD70 RMK QFE717/0957
TAF UTDT 291800Z 2919/3004 VRB02MPS 6000 SCT066CB BKN100 
     TEMPO 2919/3004 VRB08G13MPS 3000 TS HZ
       
UTFN 292000Z 32012KT 280V340 9999 -TSRA OVC033CB 21/13 Q1012 R28/290150 NOSIG
TAF UTFN 291700Z 2918/3018 33010KT 9999 SCT050CB 
     PROB40 
     TEMPO 2918/3002 VRB10G20KT -TSRA BKN030CB
       
UTNN 292030Z 33006KT CAVOK 16/M03 Q1018 R33/CLRD60 NOSIG
TAF UTNN 291700Z 2918/3018 34012KT CAVOK 
     TEMPO 3004/3012 04010KT 
     TEMPO 3012/3018 VRB04KT
       
UTNU 292030Z 34012KT CAVOK 18/06 Q1017 R13/CLRD70 NOSIG
TAF UTNU 291705Z 2918/3018 32012G22KT 7000 NSC 
     TEMPO 2918/2924 29016G26KT 4000 DU BKN050CB BKN100
       
UTSA 292000Z 23006KT 9999 NSC 19/05 Q1016 R25/CLRD70 NOSIG
TAF UTSA 291701Z 2918/3018 01008KT 7000 NSC 
     TEMPO 2918/3006 32012G22KT SCT030
       
UTSB 292030Z 31004KT CAVOK 23/06 Q1016 R01/CLRD70 NOSIG
TAF UTSB 291700Z 2918/3018 36008KT 7000 NSC 
     TEMPO 2918/3006 31012G22KT SCT030
       
UTSK 292030Z 34012KT CAVOK 23/05 Q1016 R34/CLRD70
TAF UTSK 291150Z 2913/2922 32010G20KT CAVOK 
     TEMPO 2913/2918 VRB20G30KT 1500 TSRA DS BKN040CB
       
UTSS 292030Z 25004KT 210V280 6000 NSC 20/08 Q1017 R09/70D NOSIG
TAF UTSS 291655Z 2918/3018 27010G20KT 9999 SCT066CB BKN100 
     TEMPO 2918/2924 VRB20G30KT 3500 -TSRA -DS BKN050CB
       
UTST 292000Z 25010KT 4500 HZ SCT066CB 27/06 Q1010 R88/CLRD70 NOSIG
TAF UTST 291700Z 2918/3018 24012G22KT 3000 HZ SCT060CB BKN100 TX35/3011Z 
     TEMPO 2918/2924 25025G35KT 1000 DS SCT003 BKN050CB OVC100 
     TEMPO 3000/3012 26035G45KT 0600 +DS BKN002 OVC040CB
       
UTTT 292030Z VRB02KT 9999 FEW066CB 21/13 Q1014 R08R/CLRD70 NOSIG
TAF UTTT 291700Z 2918/3018 34015KT 7000 SCT060CB BKN100 
     TEMPO 2918/2924 VRB25G35KT 3000 -TSRA -DS BKN050CB
       
UTDL 292030Z 21008MPS 9999 -SHRA VCTS SCT056CB OVC100 21/13 Q1014 8829//50 NOSIG RMK QFE723/0964
TAF UTDL 291800Z 2919/3004 23008MPS 9999 FEW060CB SCT100 
     TEMPO 2919/3004 23007G12MPS 6000 SCT050CB